createdAt,value
2018-05-01T00:01:35.434Z,54.10
2018-05-01T00:06:27.085Z,54.20
2018-05-01T00:11:17.978Z,54.20
2018-05-01T00:16:09.618Z,54.40
2018-05-01T00:21:01.254Z,54.50
2018-05-01T00:25:52.898Z,54.40
2018-05-01T00:30:44.514Z,54.70
2018-05-01T00:35:35.414Z,54.60
2018-05-01T00:40:26.313Z,55.20
2018-05-01T00:45:17.204Z,55.20
2018-05-01T00:50:08.100Z,56.10
2018-05-01T00:54:59.724Z,56.70
2018-05-01T00:59:51.373Z,56.80
2018-05-01T01:04:42.997Z,56.60
2018-05-01T01:09:34.642Z,56.20
2018-05-01T01:14:26.276Z,55.90
2018-05-01T01:19:17.895Z,55.50
2018-05-01T01:24:08.776Z,55.40
2018-05-01T01:28:59.681Z,54.90
2018-05-01T01:33:50.563Z,54.60
2018-05-01T01:38:42.134Z,53.60
2018-05-01T01:43:32.962Z,53.40
2018-05-01T01:48:23.780Z,53.30
2018-05-01T01:53:14.596Z,53.30
2018-05-01T01:58:05.436Z,53.10
2018-05-01T02:02:56.261Z,53.10
2018-05-01T02:07:47.081Z,53.20
2018-05-01T02:12:37.903Z,53.60
2018-05-01T02:17:29.477Z,53.00
2018-05-01T02:22:20.309Z,52.80
2018-05-01T02:27:11.215Z,52.70
2018-05-01T02:32:01.982Z,52.50
2018-05-01T02:36:53.550Z,52.50
2018-05-01T02:41:44.364Z,52.40
2018-05-01T02:46:35.190Z,52.40
2018-05-01T02:51:26.007Z,52.50
2018-05-01T02:56:16.834Z,52.60
2018-05-01T03:01:07.660Z,52.60
2018-05-01T03:05:58.487Z,52.60
2018-05-01T03:10:50.049Z,52.60
2018-05-01T03:15:41.626Z,52.70
2018-05-01T03:20:32.439Z,52.60
2018-05-01T03:25:23.302Z,52.70
2018-05-01T03:30:14.083Z,52.70
2018-05-01T03:35:04.900Z,52.70
2018-05-01T03:39:55.712Z,53.00
2018-05-01T03:44:46.532Z,53.00
2018-05-01T03:49:37.359Z,53.00
2018-05-01T03:54:28.175Z,52.90
2018-05-01T03:59:19.010Z,52.90
2018-05-01T04:04:09.832Z,52.60
2018-05-01T04:09:00.662Z,52.40
2018-05-01T04:13:52.234Z,52.20
2018-05-01T04:18:43.056Z,52.10
2018-05-01T04:23:34.630Z,52.20
2018-05-01T04:28:25.465Z,52.10
2018-05-01T04:33:17.034Z,51.50
2018-05-01T04:38:07.847Z,51.50
2018-05-01T04:42:58.660Z,51.50
2018-05-01T04:47:49.490Z,51.40
2018-05-01T04:52:40.309Z,51.60
2018-05-01T04:57:31.142Z,51.60
2018-05-01T05:02:21.960Z,51.80
2018-05-01T05:07:12.794Z,51.80
2018-05-01T05:12:03.629Z,51.80
2018-05-01T05:16:55.190Z,51.80
2018-05-01T05:21:46.012Z,51.80
2018-05-01T05:26:36.828Z,51.70
2018-05-01T05:31:27.660Z,51.70
2018-05-01T05:36:18.484Z,51.60
2018-05-01T05:41:09.326Z,51.60
2018-05-01T05:46:00.161Z,51.50
2018-05-01T05:50:51.733Z,51.30
2018-05-01T05:55:42.579Z,51.30
2018-05-01T06:00:33.400Z,51.40
2018-05-01T06:05:24.207Z,50.90
2018-05-01T06:10:16.380Z,50.80
2018-05-01T06:15:07.949Z,51.10
2018-05-01T06:19:58.764Z,50.90
2018-05-01T06:24:49.575Z,50.70
2018-05-01T06:29:40.406Z,50.90
2018-05-01T06:34:31.219Z,51.30
2018-05-01T06:39:22.044Z,51.20
2018-05-01T06:44:12.873Z,51.10
2018-05-01T06:49:03.705Z,51.20
2018-05-01T06:53:54.541Z,51.00
2018-05-01T06:58:45.363Z,51.10
2018-05-01T07:03:36.189Z,50.40
2018-05-01T07:08:27.762Z,48.90
2018-05-01T07:13:18.604Z,48.80
2018-05-01T07:18:09.416Z,48.20
2018-05-01T07:23:00.250Z,48.00
2018-05-01T07:27:51.076Z,48.00
2018-05-01T07:32:41.910Z,47.90
2018-05-01T07:37:33.485Z,46.50
2018-05-01T07:42:24.325Z,47.10
2018-05-01T07:47:15.156Z,46.70
2018-05-01T07:52:05.976Z,46.70
2018-05-01T07:56:56.794Z,45.80
2018-05-01T08:01:47.719Z,45.30
2018-05-01T08:06:39.283Z,45.40
2018-05-01T08:11:30.110Z,45.40
2018-05-01T08:16:20.953Z,45.90
2018-05-01T08:21:11.790Z,45.30
2018-05-01T08:26:02.607Z,45.10
2018-05-01T08:30:53.444Z,44.60
2018-05-01T08:35:45.010Z,45.20
2018-05-01T08:40:35.841Z,45.20
2018-05-01T08:45:26.670Z,45.00
2018-05-01T08:50:17.504Z,43.80
2018-05-01T08:55:08.329Z,43.40
2018-05-01T08:59:59.905Z,43.10
2018-05-01T09:04:50.727Z,42.90
2018-05-01T09:09:41.540Z,43.50
2018-05-01T09:14:32.370Z,43.80
2018-05-01T09:19:23.206Z,44.40
2018-05-01T09:24:14.037Z,44.10
2018-05-01T09:29:04.905Z,44.40
2018-05-01T09:33:55.724Z,44.30
2018-05-01T09:38:46.535Z,44.70
2018-05-01T09:43:37.374Z,45.20
2018-05-01T09:48:28.193Z,45.60
2018-05-01T09:53:19.172Z,45.80
2018-05-01T09:58:10.018Z,45.80
2018-05-01T10:03:00.920Z,46.00
2018-05-01T10:07:51.822Z,45.40
2018-05-01T10:12:42.708Z,45.50
2018-05-01T10:17:33.600Z,45.50
2018-05-01T10:22:24.481Z,45.80
2018-05-01T10:27:15.384Z,45.60
2018-05-01T10:32:07.019Z,45.70
2018-05-01T10:36:58.657Z,45.90
2018-05-01T10:41:50.303Z,45.90
2018-05-01T10:46:41.207Z,45.80
2018-05-01T10:51:32.846Z,44.70
2018-05-01T10:56:24.529Z,45.10
2018-05-01T11:01:15.476Z,45.10
2018-05-01T11:06:06.372Z,44.50
2018-05-01T11:10:57.260Z,45.00
2018-05-01T11:15:48.143Z,46.20
2018-05-01T11:20:39.778Z,45.80
2018-05-01T11:25:31.399Z,45.80
2018-05-01T11:30:22.288Z,45.80
2018-05-01T11:35:13.167Z,45.80
2018-05-01T11:40:04.052Z,45.10
2018-05-01T11:44:54.985Z,45.20
2018-05-01T11:49:45.884Z,44.80
2018-05-01T11:54:36.779Z,44.60
2018-05-01T11:59:27.706Z,44.40
2018-05-01T12:04:18.594Z,43.00
2018-05-01T12:09:09.488Z,42.70
2018-05-01T12:14:01.150Z,43.00
2018-05-01T12:18:52.084Z,43.00
2018-05-01T12:23:43.065Z,43.40
2018-05-01T12:28:33.896Z,43.40
2018-05-01T12:33:24.818Z,42.90
2018-05-01T12:38:15.707Z,43.20
2018-05-01T12:43:07.348Z,43.00
2018-05-01T12:47:59.036Z,42.60
2018-05-01T12:52:49.920Z,42.60
2018-05-01T12:57:40.825Z,42.00
2018-05-01T13:02:31.734Z,42.10
2018-05-01T13:07:23.390Z,41.00
2018-05-01T13:12:14.267Z,41.00
2018-05-01T13:17:05.282Z,40.70
2018-05-01T13:21:56.163Z,40.90
2018-05-01T13:26:47.043Z,41.20
2018-05-01T13:31:38.707Z,41.70
2018-05-01T13:36:29.604Z,41.70
2018-05-01T13:41:21.231Z,42.00
2018-05-01T13:46:12.928Z,42.10
2018-05-01T13:51:03.812Z,42.10
2018-05-01T13:55:54.721Z,41.80
2018-05-01T14:00:45.643Z,41.70
2018-05-01T14:05:37.265Z,42.10
2018-05-01T14:10:28.902Z,42.30
2018-05-01T14:15:19.805Z,42.40
2018-05-01T14:20:11.462Z,42.50
2018-05-01T14:25:02.374Z,42.40
2018-05-01T14:29:54.000Z,42.60
2018-05-01T14:34:45.696Z,42.90
2018-05-01T14:39:36.579Z,42.90
2018-05-01T14:44:27.473Z,43.10
2018-05-01T14:49:19.095Z,44.10
2018-05-01T14:54:09.975Z,44.10
2018-05-01T14:59:00.894Z,43.80
2018-05-01T15:03:51.808Z,43.20
2018-05-01T15:08:42.688Z,43.40
2018-05-01T15:13:34.312Z,44.80
2018-05-01T15:18:25.936Z,44.60
2018-05-01T15:23:16.838Z,44.60
2018-05-01T15:28:07.726Z,44.50
2018-05-01T15:32:58.627Z,44.00
2018-05-01T15:37:49.592Z,44.00
2018-05-01T15:42:40.522Z,43.90
2018-05-01T15:47:31.405Z,43.90
2018-05-01T15:52:22.279Z,43.70
2018-05-01T15:57:13.911Z,41.90
2018-05-01T16:02:05.537Z,42.30
2018-05-01T16:06:56.420Z,42.30
2018-05-01T16:11:47.454Z,42.40
2018-05-01T16:16:38.338Z,42.50
2018-05-01T16:21:29.250Z,42.30
2018-05-01T16:26:20.163Z,42.30
2018-05-01T16:31:11.078Z,42.40
2018-05-01T16:36:02.103Z,42.80
2018-05-01T16:40:52.937Z,42.70
2018-05-01T16:45:43.903Z,42.90
2018-05-01T16:50:34.741Z,43.00
2018-05-01T16:55:25.633Z,42.90
2018-05-01T17:00:16.538Z,43.00
2018-05-01T17:05:07.433Z,42.80
2018-05-01T17:09:58.406Z,43.00
2018-05-01T17:14:50.541Z,43.00
2018-05-01T17:19:41.428Z,42.90
2018-05-01T17:24:32.353Z,43.10
2018-05-01T17:34:45.425Z,43.80
2018-05-01T17:39:36.323Z,44.00
2018-05-01T17:44:27.398Z,44.00
2018-05-01T17:49:19.045Z,44.30
2018-05-01T17:54:10.761Z,44.60
2018-05-01T17:59:01.670Z,44.50
2018-05-01T18:03:52.571Z,44.60
2018-05-01T18:08:43.488Z,44.60
2018-05-01T18:13:34.371Z,44.80
2018-05-01T18:18:26.000Z,45.10
2018-05-01T18:23:17.707Z,45.30
2018-05-01T18:28:09.346Z,45.30
2018-05-01T18:33:00.342Z,45.30
2018-05-01T18:37:51.237Z,45.40
2018-05-01T18:42:42.128Z,45.60
2018-05-01T18:47:33.829Z,45.60
2018-05-01T18:52:25.391Z,45.70
2018-05-01T18:57:17.156Z,45.80
2018-05-01T19:02:08.118Z,45.80
2018-05-01T19:06:59.009Z,45.90
2018-05-01T19:11:50.005Z,46.00
2018-05-01T19:16:40.985Z,46.20
2018-05-01T19:21:31.879Z,46.30
2018-05-01T19:26:22.769Z,46.50
2018-05-01T19:31:13.676Z,46.60
2018-05-01T19:36:04.621Z,46.80
2018-05-01T19:40:55.553Z,46.70
2018-05-01T19:45:46.486Z,46.90
2018-05-01T19:50:37.380Z,47.00
2018-05-01T19:55:28.271Z,47.20
2018-05-01T20:00:19.172Z,47.20
2018-05-01T20:05:10.813Z,47.40
2018-05-01T20:10:01.789Z,47.30
2018-05-01T20:14:52.710Z,47.50
2018-05-01T20:19:43.610Z,47.60
2018-05-01T20:24:34.564Z,47.60
2018-05-01T20:29:25.497Z,47.80
2018-05-01T20:34:16.461Z,48.80
2018-05-01T20:39:07.387Z,49.00
2018-05-01T20:43:58.312Z,49.30
2018-05-01T20:48:49.204Z,49.30
2018-05-01T20:53:40.106Z,49.20
2018-05-01T20:58:31.724Z,49.40
2018-05-01T21:03:22.756Z,49.40
2018-05-01T21:08:14.385Z,49.60
2018-05-01T21:13:06.032Z,49.70
2018-05-01T21:17:57.673Z,49.70
2018-05-01T21:22:48.585Z,49.70
2018-05-01T21:27:40.212Z,50.20
2018-05-01T21:32:31.844Z,50.20
2018-05-01T21:37:23.500Z,50.30
2018-05-01T21:42:14.383Z,50.20
2018-05-01T21:47:05.395Z,50.20
2018-05-01T21:51:56.289Z,50.30
2018-05-01T21:56:47.177Z,50.50
2018-05-01T22:01:38.063Z,50.40
2018-05-01T22:06:28.953Z,50.50
2018-05-01T22:11:19.844Z,50.50
2018-05-01T22:16:10.741Z,50.60
2018-05-01T22:21:02.367Z,50.70
2018-05-01T22:25:54.005Z,50.70
2018-05-01T22:30:45.650Z,50.90
2018-05-01T22:35:36.557Z,50.80
2018-05-01T22:40:28.179Z,51.00
2018-05-01T22:45:19.190Z,50.90
2018-05-01T22:50:10.821Z,51.10
2018-05-01T22:55:01.720Z,51.60
2018-05-01T22:59:52.607Z,51.20
2018-05-01T23:04:43.552Z,51.30
2018-05-01T23:09:34.445Z,51.40
2018-05-01T23:14:25.326Z,51.30
2018-05-01T23:19:16.978Z,51.80
2018-05-01T23:24:08.603Z,51.50
2018-05-01T23:29:00.245Z,51.60
2018-05-01T23:33:51.923Z,51.80
2018-05-01T23:38:42.776Z,51.80
2018-05-01T23:43:33.670Z,51.80
2018-05-01T23:48:24.571Z,51.90
2018-05-01T23:53:15.455Z,51.80
2018-05-01T23:58:07.075Z,51.80
